createdAt,value
2023-03-11T00:01:01.000Z,38.73
2023-03-11T00:03:24.911Z,33.97
2023-03-11T00:05:48.871Z,41.77
2023-03-11T00:08:17.823Z,35.80
2023-03-11T00:10:44.187Z,43.93
2023-03-11T00:13:12.473Z,39.60
2023-03-11T00:15:36.783Z,39.67
2023-03-11T00:18:00.784Z,43.70
2023-03-11T00:20:27.497Z,35.10
2023-03-11T00:22:51.541Z,32.00
2023-03-11T00:25:16.612Z,41.53
2023-03-11T00:27:40.174Z,37.27
2023-03-11T00:30:03.939Z,45.83
2023-03-11T00:32:27.559Z,44.17
2023-03-11T00:34:51.317Z,49.63
2023-03-11T00:37:15.097Z,46.33
2023-03-11T00:39:38.702Z,43.23
2023-03-11T00:42:03.875Z,46.60
2023-03-11T00:44:27.439Z,41.13
2023-03-11T00:46:50.960Z,39.07
2023-03-11T00:49:14.538Z,38.47
2023-03-11T00:51:38.177Z,39.03
2023-03-11T00:54:01.956Z,45.07
2023-03-11T00:56:26.617Z,40.20
2023-03-11T00:58:52.024Z,38.67
2023-03-11T01:01:18.986Z,32.37
2023-03-11T01:03:43.204Z,36.00
2023-03-11T01:06:08.144Z,39.00
2023-03-11T01:08:32.548Z,31.57
2023-03-11T01:10:56.165Z,37.30
2023-03-11T01:13:19.991Z,41.73
2023-03-11T01:15:45.060Z,35.03
2023-03-11T01:18:09.078Z,31.57
2023-03-11T01:20:33.341Z,21.77
2023-03-11T01:22:57.024Z,20.57
2023-03-11T01:25:23.268Z,30.17
2023-03-11T01:27:47.219Z,21.17
2023-03-11T01:30:23.113Z,19.03
2023-03-11T01:32:48.602Z,24.97
2023-03-11T01:35:13.838Z,18.77
2023-03-11T01:37:37.408Z,14.13
2023-03-11T01:40:01.178Z,10.37
2023-03-11T01:42:25.127Z,11.57
2023-03-11T01:44:49.515Z,10.83
2023-03-11T01:47:40.940Z,7.83
2023-03-11T01:50:13.389Z,8.73
2023-03-11T01:52:37.859Z,6.97
2023-03-11T01:55:01.494Z,4.93
2023-03-11T01:57:25.067Z,3.87
2023-03-11T01:59:53.394Z,4.83
2023-03-11T02:02:22.390Z,3.50
2023-03-11T02:04:47.156Z,4.70
2023-03-11T02:07:13.887Z,3.80
2023-03-11T02:09:37.876Z,2.77
2023-03-11T02:12:02.306Z,2.80
2023-03-11T02:14:29.278Z,3.70
2023-03-11T02:16:52.953Z,2.50
2023-03-11T02:19:28.358Z,3.17
2023-03-11T02:21:52.959Z,3.23
2023-03-11T02:24:23.593Z,3.27
2023-03-11T02:26:56.665Z,2.77
2023-03-11T02:29:22.836Z,1.87
2023-03-11T02:31:47.295Z,2.67
2023-03-11T02:34:20.477Z,4.63
2023-03-11T02:36:45.730Z,2.70
2023-03-11T02:39:11.649Z,3.17
2023-03-11T02:41:39.433Z,3.00
2023-03-11T02:44:06.674Z,2.40
2023-03-11T02:46:30.636Z,3.87
2023-03-11T02:48:55.527Z,4.57
2023-03-11T02:51:19.151Z,5.20
2023-03-11T02:53:48.550Z,2.90
2023-03-11T02:56:12.444Z,3.53
2023-03-11T02:58:36.197Z,4.90
2023-03-11T03:01:01.260Z,3.73
2023-03-11T03:03:24.986Z,3.07
2023-03-11T03:05:48.647Z,3.40
2023-03-11T03:08:12.391Z,4.07
2023-03-11T03:10:36.075Z,5.30
2023-03-11T03:12:59.916Z,5.70
2023-03-11T03:15:23.602Z,7.07
2023-03-11T03:17:51.485Z,4.77
2023-03-11T03:20:16.518Z,5.13
2023-03-11T03:22:45.232Z,4.80
2023-03-11T03:25:12.485Z,3.23
2023-03-11T03:27:36.745Z,5.67
2023-03-11T03:30:02.052Z,6.43
2023-03-11T03:32:25.797Z,7.07
2023-03-11T03:34:51.125Z,6.60
2023-03-11T03:37:14.669Z,5.43
2023-03-11T03:39:38.244Z,5.97
2023-03-11T03:42:02.253Z,6.93
2023-03-11T03:44:28.425Z,8.57
2023-03-11T03:46:51.948Z,8.33
2023-03-11T03:49:15.935Z,7.73
2023-03-11T03:51:41.913Z,8.43
2023-03-11T03:54:10.599Z,9.50
2023-03-11T03:56:34.708Z,10.07
2023-03-11T03:58:58.748Z,13.07
2023-03-11T04:01:27.053Z,13.13
2023-03-11T04:03:51.270Z,16.30
2023-03-11T04:06:19.878Z,20.37
2023-03-11T04:08:48.983Z,21.50
2023-03-11T04:11:12.974Z,20.73
2023-03-11T04:13:36.736Z,16.07
2023-03-11T04:16:01.539Z,19.53
2023-03-11T04:18:25.367Z,17.93
2023-03-11T04:20:48.962Z,14.83
2023-03-11T04:23:13.030Z,16.10
2023-03-11T04:25:38.192Z,15.30
2023-03-11T04:28:01.940Z,14.50
2023-03-11T04:30:26.035Z,13.97
2023-03-11T04:32:53.014Z,10.77
2023-03-11T04:35:16.939Z,12.90
2023-03-11T04:37:41.623Z,8.10
2023-03-11T04:40:07.004Z,9.87
2023-03-11T04:42:32.971Z,7.90
2023-03-11T04:44:57.000Z,7.27
2023-03-11T04:47:21.766Z,7.40
2023-03-11T04:49:45.316Z,7.67
2023-03-11T04:52:09.222Z,6.67
2023-03-11T04:54:32.856Z,10.00
2023-03-11T04:56:57.016Z,11.53
2023-03-11T04:59:22.440Z,8.70
2023-03-11T05:01:47.701Z,9.80
2023-03-11T05:04:12.513Z,7.60
2023-03-11T05:06:36.469Z,11.27
2023-03-11T05:09:00.801Z,9.10
2023-03-11T05:11:24.949Z,8.73
2023-03-11T05:13:48.959Z,8.67
2023-03-11T05:16:14.207Z,12.07
2023-03-11T05:18:38.031Z,11.70
2023-03-11T05:21:02.470Z,10.33
2023-03-11T05:23:28.631Z,10.80
2023-03-11T05:25:52.298Z,12.10
2023-03-11T05:28:16.064Z,11.57
2023-03-11T05:30:45.939Z,12.90
2023-03-11T05:33:11.137Z,9.93
2023-03-11T05:35:34.812Z,6.27
2023-03-11T05:37:58.572Z,6.60
2023-03-11T05:40:24.810Z,9.10
2023-03-11T05:42:48.781Z,8.97
2023-03-11T05:45:12.986Z,6.03
2023-03-11T05:47:38.327Z,7.30
2023-03-11T05:50:04.387Z,5.30
2023-03-11T05:52:28.287Z,7.97
2023-03-11T05:54:53.220Z,10.13
2023-03-11T05:57:21.129Z,8.77
2023-03-11T05:59:44.705Z,8.57
2023-03-11T06:02:08.407Z,9.80
2023-03-11T06:04:32.206Z,8.23
2023-03-11T06:06:59.316Z,9.90
2023-03-11T06:09:26.294Z,8.80
2023-03-11T06:11:50.708Z,11.13
2023-03-11T06:14:16.891Z,13.30
2023-03-11T06:16:44.060Z,13.37
2023-03-11T06:19:08.053Z,7.83
2023-03-11T06:21:35.429Z,14.93
2023-03-11T06:24:00.497Z,10.17
2023-03-11T06:26:26.181Z,13.50
2023-03-11T06:28:51.536Z,12.83
2023-03-11T06:31:18.162Z,10.67
2023-03-11T06:33:42.042Z,9.03
2023-03-11T06:36:07.759Z,11.43
2023-03-11T06:38:31.955Z,11.03
2023-03-11T06:41:01.341Z,7.70
2023-03-11T06:43:25.294Z,12.10
2023-03-11T06:45:49.739Z,11.13
2023-03-11T06:48:13.611Z,12.67
2023-03-11T06:50:37.649Z,12.63
2023-03-11T06:53:02.949Z,15.13
2023-03-11T06:55:27.221Z,12.90
2023-03-11T06:57:52.275Z,9.30
2023-03-11T07:00:18.027Z,12.67
2023-03-11T07:02:46.978Z,13.57
2023-03-11T07:05:12.668Z,13.57
2023-03-11T07:07:36.555Z,15.37
2023-03-11T07:10:00.555Z,14.77
2023-03-11T07:12:25.457Z,16.63
2023-03-11T07:14:50.497Z,18.77
2023-03-11T07:17:14.262Z,19.27
2023-03-11T07:19:45.401Z,19.40
2023-03-11T07:22:08.978Z,19.60
2023-03-11T07:24:32.499Z,20.33
2023-03-11T07:26:56.137Z,16.17
2023-03-11T07:29:20.287Z,15.60
2023-03-11T07:31:45.259Z,16.90
2023-03-11T07:34:11.504Z,14.17
2023-03-11T07:36:35.199Z,12.43
2023-03-11T07:39:04.212Z,12.80
2023-03-11T07:41:28.470Z,14.87
2023-03-11T07:43:55.417Z,12.13
2023-03-11T07:46:19.913Z,14.20
2023-03-11T07:48:45.423Z,12.87
2023-03-11T07:51:12.945Z,14.97
2023-03-11T07:53:36.619Z,16.33
2023-03-11T07:56:01.454Z,14.10
2023-03-11T07:58:25.134Z,20.83
2023-03-11T08:00:48.684Z,15.53
2023-03-11T08:03:12.325Z,18.33
2023-03-11T08:05:37.265Z,17.90
2023-03-11T08:08:00.771Z,19.23
2023-03-11T08:10:24.378Z,15.17
2023-03-11T08:12:47.888Z,17.00
2023-03-11T08:15:12.671Z,8.83
2023-03-11T08:17:36.280Z,16.70
2023-03-11T08:19:59.888Z,12.57
2023-03-11T08:22:24.777Z,11.27
2023-03-11T08:24:53.359Z,12.67
2023-03-11T08:27:16.863Z,13.57
2023-03-11T08:29:40.436Z,15.30
2023-03-11T08:32:05.601Z,12.13
2023-03-11T08:34:29.264Z,10.57
2023-03-11T08:36:52.866Z,12.33
2023-03-11T08:39:17.820Z,10.80
2023-03-11T08:41:41.332Z,12.27
2023-03-11T08:44:05.029Z,11.23
2023-03-11T08:46:30.787Z,12.63
2023-03-11T08:48:55.027Z,8.63
2023-03-11T08:51:19.132Z,9.13
2023-03-11T08:53:42.919Z,8.10
2023-03-11T08:56:09.085Z,9.97
2023-03-11T08:58:32.648Z,6.77
2023-03-11T09:00:56.326Z,8.60
2023-03-11T09:03:19.881Z,9.83
2023-03-11T09:05:43.485Z,8.83
2023-03-11T09:08:07.436Z,10.10
2023-03-11T09:10:31.002Z,7.93
2023-03-11T09:12:55.939Z,8.13
2023-03-11T09:15:19.703Z,7.83
2023-03-11T09:17:43.253Z,10.20
2023-03-11T09:20:08.528Z,9.37
2023-03-11T09:22:32.290Z,9.07
2023-03-11T09:24:55.893Z,9.27
2023-03-11T09:27:19.466Z,8.97
2023-03-11T09:29:44.505Z,10.13
2023-03-11T09:32:08.568Z,9.50
2023-03-11T09:34:32.073Z,8.77
2023-03-11T09:36:55.657Z,10.13
2023-03-11T09:39:19.242Z,8.13
2023-03-11T09:41:58.525Z,10.47
2023-03-11T09:44:30.207Z,8.27
2023-03-11T09:47:51.304Z,8.10
2023-03-11T09:50:27.538Z,9.73
2023-03-11T09:53:28.909Z,10.23
2023-03-11T09:55:55.193Z,9.43
2023-03-11T09:58:25.775Z,8.87
2023-03-11T10:00:52.090Z,8.70
2023-03-11T10:03:33.860Z,7.73
2023-03-11T10:06:09.510Z,8.57
2023-03-11T10:08:41.723Z,10.57
2023-03-11T10:11:18.077Z,9.07
2023-03-11T10:13:48.646Z,9.10
2023-03-11T10:16:20.568Z,9.20
2023-03-11T10:18:57.280Z,8.77
2023-03-11T10:21:38.298Z,9.23
2023-03-11T10:24:19.106Z,9.37
2023-03-11T10:26:46.735Z,7.70
2023-03-11T10:29:19.421Z,9.65
2023-03-11T10:31:48.745Z,10.38
2023-03-11T10:34:21.755Z,9.65
2023-03-11T10:36:59.448Z,8.90
2023-03-11T10:39:24.807Z,8.53
2023-03-11T10:41:55.754Z,12.10
2023-03-11T10:44:25.294Z,8.47
2023-03-11T10:46:48.868Z,9.13
2023-03-11T10:49:17.966Z,10.43
2023-03-11T10:51:42.406Z,9.13
2023-03-11T10:54:06.492Z,9.33
2023-03-11T10:56:33.917Z,11.17
2023-03-11T10:58:57.702Z,12.07
2023-03-11T11:01:21.693Z,11.43
2023-03-11T11:03:47.555Z,11.27
2023-03-11T11:06:24.040Z,12.87
2023-03-11T11:08:47.833Z,9.03
2023-03-11T11:11:24.142Z,10.70
2023-03-11T11:13:58.080Z,13.40
2023-03-11T11:16:22.557Z,10.10
2023-03-11T11:18:49.451Z,13.50
2023-03-11T11:21:17.642Z,11.37
2023-03-11T11:23:44.937Z,16.90
2023-03-11T11:26:18.372Z,9.70
2023-03-11T11:28:41.993Z,13.10
2023-03-11T11:31:07.815Z,11.80
2023-03-11T11:33:33.594Z,15.10
2023-03-11T11:36:00.473Z,15.10
2023-03-11T11:38:28.984Z,14.37
2023-03-11T11:40:53.566Z,13.90
2023-03-11T11:43:21.614Z,13.77
2023-03-11T11:45:48.422Z,13.90
2023-03-11T11:48:21.138Z,13.67
2023-03-11T11:50:49.669Z,13.73
2023-03-11T11:53:29.033Z,15.97
2023-03-11T11:55:54.332Z,16.33
2023-03-11T11:58:17.873Z,13.53
2023-03-11T12:00:57.679Z,14.13
2023-03-11T12:03:52.884Z,13.43
2023-03-11T12:06:24.155Z,15.07
2023-03-11T12:09:05.488Z,14.80
2023-03-11T12:11:36.739Z,12.70
2023-03-11T12:14:06.021Z,14.23
2023-03-11T12:16:42.254Z,16.07
2023-03-11T12:19:19.243Z,16.43
2023-03-11T12:22:11.818Z,15.23
2023-03-11T12:25:06.567Z,16.80
2023-03-11T12:27:36.098Z,18.60
2023-03-11T12:30:05.147Z,13.43
2023-03-11T12:32:35.318Z,16.50
2023-03-11T12:35:05.509Z,22.17
2023-03-11T12:37:29.137Z,15.43
2023-03-11T12:39:54.080Z,17.67
2023-03-11T12:42:20.919Z,15.43
2023-03-11T12:44:45.598Z,14.77
2023-03-11T12:47:28.976Z,17.47
2023-03-11T12:49:55.290Z,16.60
2023-03-11T12:52:23.329Z,13.57
2023-03-11T12:54:48.644Z,16.47
2023-03-11T12:57:35.963Z,14.40
2023-03-11T13:00:25.943Z,16.57
2023-03-11T13:03:33.870Z,13.33
2023-03-11T13:06:12.775Z,15.57
2023-03-11T13:08:46.185Z,14.13
2023-03-11T13:11:38.651Z,17.13
2023-03-11T13:14:29.357Z,15.20
2023-03-11T13:16:52.992Z,13.83
2023-03-11T13:19:56.201Z,10.90
2023-03-11T13:23:16.711Z,17.77
2023-03-11T13:25:42.792Z,15.40
2023-03-11T13:28:25.909Z,13.73
2023-03-11T13:30:58.437Z,14.90
2023-03-11T13:33:33.426Z,14.70
2023-03-11T13:36:11.487Z,14.40
2023-03-11T13:38:53.494Z,13.40
2023-03-11T13:41:22.463Z,13.33
2023-03-11T13:43:48.803Z,13.83
2023-03-11T13:46:30.015Z,13.00
2023-03-11T13:49:04.178Z,13.13
2023-03-11T13:51:37.774Z,12.80
2023-03-11T13:54:06.305Z,13.27
2023-03-11T13:56:33.029Z,11.40
2023-03-11T13:59:16.717Z,10.23
2023-03-11T14:01:43.211Z,8.87
2023-03-11T14:04:12.606Z,9.70
2023-03-11T14:06:36.246Z,7.93
2023-03-11T14:08:59.756Z,12.53
2023-03-11T14:11:29.154Z,10.13
2023-03-11T14:13:53.922Z,10.00
2023-03-11T14:16:21.385Z,8.93
2023-03-11T14:18:48.461Z,9.90
2023-03-11T14:21:17.286Z,9.40
2023-03-11T14:23:44.334Z,9.17
2023-03-11T14:26:10.794Z,9.07
2023-03-11T14:28:40.146Z,6.43
2023-03-11T14:31:05.370Z,10.40
2023-03-11T14:33:29.438Z,6.20
2023-03-11T14:36:00.218Z,9.13
2023-03-11T14:38:26.395Z,7.33
2023-03-11T14:40:55.229Z,8.13
2023-03-11T14:43:21.393Z,8.93
2023-03-11T14:45:45.389Z,7.77
2023-03-11T14:48:18.054Z,10.47
2023-03-11T14:50:41.997Z,8.80
2023-03-11T14:53:15.227Z,8.40
2023-03-11T14:55:42.900Z,7.10
2023-03-11T14:58:12.725Z,7.23
2023-03-11T15:00:41.825Z,7.10
2023-03-11T15:03:17.412Z,10.73
2023-03-11T15:05:49.433Z,7.40
2023-03-11T15:08:18.591Z,8.57
2023-03-11T15:11:03.390Z,8.60
2023-03-11T15:13:27.255Z,9.17
2023-03-11T15:15:58.506Z,8.07
2023-03-11T15:18:27.391Z,8.53
2023-03-11T15:21:07.118Z,9.07
2023-03-11T15:23:32.555Z,11.07
2023-03-11T15:25:56.095Z,5.90
2023-03-11T15:28:25.333Z,7.00
2023-03-11T15:30:49.073Z,6.43
2023-03-11T15:33:24.197Z,6.00
2023-03-11T15:35:49.752Z,5.20
2023-03-11T15:38:21.539Z,4.97
2023-03-11T15:40:55.473Z,8.93
2023-03-11T15:43:28.194Z,5.70
2023-03-11T15:45:53.576Z,4.77
2023-03-11T15:48:17.248Z,5.47
2023-03-11T15:50:53.966Z,5.57
2023-03-11T15:53:18.212Z,5.37
2023-03-11T15:55:41.730Z,4.60
2023-03-11T15:58:09.805Z,6.77
2023-03-11T16:00:33.902Z,9.63
2023-03-11T16:02:57.542Z,5.40
2023-03-11T16:05:23.212Z,5.20
2023-03-11T16:07:47.237Z,4.80
2023-03-11T16:10:12.795Z,4.70
2023-03-11T16:12:36.363Z,5.23
2023-03-11T16:15:01.271Z,5.20
2023-03-11T16:17:24.846Z,4.97
2023-03-11T16:19:49.693Z,6.33
2023-03-11T16:22:19.815Z,7.93
2023-03-11T16:24:43.582Z,5.37
2023-03-11T16:27:07.277Z,6.13
2023-03-11T16:29:31.054Z,5.87
2023-03-11T16:31:56.135Z,5.07
2023-03-11T16:34:19.654Z,6.93
2023-03-11T16:36:43.231Z,5.53
2023-03-11T16:39:06.784Z,5.57
2023-03-11T16:41:30.394Z,4.67
2023-03-11T16:43:54.522Z,4.93
2023-03-11T16:46:18.115Z,4.67
2023-03-11T16:48:43.082Z,5.13
2023-03-11T16:51:07.899Z,5.00
2023-03-11T16:53:31.626Z,5.40
2023-03-11T16:55:55.427Z,7.77
2023-03-11T16:58:19.003Z,6.67
2023-03-11T17:00:42.959Z,9.07
2023-03-11T17:03:07.241Z,8.13
2023-03-11T17:05:32.343Z,7.83
2023-03-11T17:08:00.151Z,8.03
2023-03-11T17:10:24.536Z,7.30
2023-03-11T17:12:48.074Z,5.53
2023-03-11T17:15:12.414Z,6.87
2023-03-11T17:17:35.985Z,6.83
2023-03-11T17:19:59.604Z,6.97
2023-03-11T17:22:24.555Z,6.63
2023-03-11T17:24:48.304Z,9.17
2023-03-11T17:27:11.927Z,6.50
2023-03-11T17:29:35.595Z,8.53
2023-03-11T17:31:59.186Z,6.53
2023-03-11T17:34:23.028Z,7.63
2023-03-11T17:36:46.605Z,10.53
2023-03-11T17:39:11.604Z,7.27
2023-03-11T17:41:35.846Z,16.63
2023-03-11T17:43:59.509Z,7.77
2023-03-11T17:46:23.739Z,9.13
2023-03-11T17:48:49.866Z,9.27
2023-03-11T17:51:16.369Z,10.07
2023-03-11T17:53:41.124Z,8.10
2023-03-11T17:56:08.028Z,13.53
2023-03-11T17:58:31.790Z,8.70
2023-03-11T18:00:55.383Z,9.57
2023-03-11T18:03:18.946Z,15.43
2023-03-11T18:05:42.483Z,9.50
2023-03-11T18:08:06.466Z,15.40
2023-03-11T18:10:30.215Z,11.80
2023-03-11T18:12:55.134Z,10.07
2023-03-11T18:15:19.919Z,16.53
2023-03-11T18:17:43.868Z,24.20
2023-03-11T18:20:08.968Z,9.60
2023-03-11T18:22:35.203Z,9.50
2023-03-11T18:24:59.010Z,11.73
2023-03-11T18:27:24.472Z,12.73
2023-03-11T18:29:49.385Z,13.50
2023-03-11T18:32:13.144Z,14.40
2023-03-11T18:34:37.595Z,8.67
2023-03-11T18:37:01.117Z,9.80
2023-03-11T18:39:24.702Z,12.93
2023-03-11T18:41:48.326Z,8.53
2023-03-11T18:44:12.112Z,7.57
2023-03-11T18:46:37.189Z,7.80
2023-03-11T18:49:02.707Z,10.47
2023-03-11T18:51:27.029Z,8.27
2023-03-11T18:53:50.673Z,7.33
2023-03-11T18:56:16.522Z,16.57
2023-03-11T18:58:40.172Z,10.23
2023-03-11T19:01:08.126Z,9.30
2023-03-11T19:03:33.170Z,11.13
2023-03-11T19:05:56.693Z,12.00
2023-03-11T19:08:20.631Z,9.50
2023-03-11T19:10:44.794Z,8.30
2023-03-11T19:13:08.546Z,9.57
2023-03-11T19:15:32.129Z,11.17
2023-03-11T19:18:06.318Z,14.30
2023-03-11T19:20:32.146Z,7.30
2023-03-11T19:22:55.751Z,8.67
2023-03-11T19:25:21.185Z,12.03
2023-03-11T19:27:44.695Z,8.43
2023-03-11T19:30:10.314Z,11.43
2023-03-11T19:32:33.910Z,11.77
2023-03-11T19:34:57.496Z,7.83
2023-03-11T19:37:22.478Z,8.57
2023-03-11T19:39:46.300Z,8.03
2023-03-11T19:42:09.952Z,6.63
2023-03-11T19:44:33.573Z,6.10
2023-03-11T19:46:57.154Z,8.50
2023-03-11T19:49:21.944Z,9.07
2023-03-11T19:51:50.027Z,6.53
2023-03-11T19:54:16.335Z,6.87
2023-03-11T19:56:40.411Z,6.97
2023-03-11T19:59:04.221Z,7.57
2023-03-11T20:01:30.273Z,8.27
2023-03-11T20:03:53.957Z,10.97
2023-03-11T20:06:20.690Z,7.07
2023-03-11T20:08:45.430Z,10.57
2023-03-11T20:11:10.828Z,5.03
2023-03-11T20:13:35.842Z,11.20
2023-03-11T20:16:08.623Z,7.67
2023-03-11T20:18:32.255Z,10.20
2023-03-11T20:20:55.845Z,11.30
2023-03-11T20:23:19.464Z,7.67
2023-03-11T20:25:43.850Z,8.50
2023-03-11T20:28:09.658Z,6.20
2023-03-11T20:30:33.387Z,7.87
2023-03-11T20:32:57.337Z,9.53
2023-03-11T20:35:21.648Z,9.70
2023-03-11T20:37:45.916Z,10.63
2023-03-11T20:40:13.139Z,8.47
2023-03-11T20:42:36.834Z,12.33
2023-03-11T20:45:01.901Z,9.50
2023-03-11T20:47:25.793Z,4.80
2023-03-11T20:49:49.350Z,6.00
2023-03-11T20:52:13.107Z,7.83
2023-03-11T20:54:36.692Z,9.73
2023-03-11T20:57:00.486Z,9.03
2023-03-11T20:59:24.021Z,10.00
2023-03-11T21:01:49.342Z,11.57
2023-03-11T21:04:15.997Z,7.73
2023-03-11T21:06:41.436Z,8.47
2023-03-11T21:09:07.456Z,6.33
2023-03-11T21:11:31.516Z,4.90
2023-03-11T21:13:56.436Z,7.27
2023-03-11T21:16:20.267Z,9.03
2023-03-11T21:18:49.181Z,9.13
2023-03-11T21:21:14.004Z,9.00
2023-03-11T21:23:37.660Z,9.30
2023-03-11T21:26:02.134Z,10.10
2023-03-11T21:28:25.946Z,8.00
2023-03-11T21:30:49.713Z,8.80
2023-03-11T21:33:16.319Z,6.60
2023-03-11T21:35:41.753Z,6.43
2023-03-11T21:38:05.588Z,9.70
2023-03-11T21:40:29.326Z,6.20
2023-03-11T21:42:52.830Z,4.63
2023-03-11T21:45:17.528Z,6.43
2023-03-11T21:47:41.091Z,4.73
2023-03-11T21:50:05.053Z,6.90
2023-03-11T21:52:30.102Z,5.10
2023-03-11T21:54:53.766Z,10.17
2023-03-11T21:57:17.351Z,4.90
2023-03-11T21:59:41.117Z,8.23
2023-03-11T22:02:04.838Z,5.60
2023-03-11T22:04:28.744Z,4.20
2023-03-11T22:06:52.571Z,4.20
2023-03-11T22:09:17.705Z,8.90
2023-03-11T22:11:41.312Z,8.23
2023-03-11T22:14:04.957Z,6.53
2023-03-11T22:16:28.624Z,7.40
2023-03-11T22:18:52.656Z,7.07
2023-03-11T22:21:17.785Z,7.13
2023-03-11T22:23:41.372Z,4.20
2023-03-11T22:26:06.496Z,7.93
2023-03-11T22:28:32.964Z,6.70
2023-03-11T22:30:56.529Z,5.73
2023-03-11T22:33:20.617Z,7.13
2023-03-11T22:35:52.050Z,7.00
2023-03-11T22:38:15.705Z,9.17
2023-03-11T22:40:39.296Z,8.33
2023-03-11T22:43:04.236Z,3.70
2023-03-11T22:45:27.973Z,4.00
2023-03-11T22:47:51.586Z,5.70
2023-03-11T22:50:15.087Z,5.00
2023-03-11T22:52:38.675Z,5.60
2023-03-11T22:55:02.176Z,8.73
2023-03-11T22:57:25.841Z,9.50
2023-03-11T22:59:50.844Z,4.57
2023-03-11T23:02:14.462Z,10.27
2023-03-11T23:04:38.045Z,13.67
2023-03-11T23:07:01.623Z,3.67
2023-03-11T23:09:25.773Z,4.27
2023-03-11T23:11:49.540Z,6.60
2023-03-11T23:14:13.109Z,5.03
2023-03-11T23:16:38.096Z,6.83
2023-03-11T23:19:02.198Z,9.33
2023-03-11T23:21:28.846Z,4.00
2023-03-11T23:23:52.737Z,6.33
2023-03-11T23:26:17.308Z,7.37
2023-03-11T23:28:41.535Z,3.57
2023-03-11T23:31:06.009Z,7.43
2023-03-11T23:33:31.112Z,3.63
2023-03-11T23:35:54.788Z,8.47
2023-03-11T23:38:18.332Z,5.33
2023-03-11T23:40:42.699Z,6.53
2023-03-11T23:43:06.226Z,7.67
2023-03-11T23:45:29.781Z,4.27
2023-03-11T23:47:53.348Z,4.90
2023-03-11T23:50:18.567Z,11.13
2023-03-11T23:52:42.094Z,3.90
2023-03-11T23:55:06.750Z,7.70
2023-03-11T23:57:30.301Z,7.50
2023-03-11T23:59:53.908Z,7.87
